Time;durP1;ratioP1;P1;durP2;ratioP2;P2;SDS_P1;SDS_P2;PMS_P1;PMS_P2;Temp;Humidity;BMP_temperature;BMP_pressure;BME280_temperature;BME280_humidity;BME280_pressure;Samples;Min_cycle;Max_cycle;Signal;HPM_P1;HPM_P2
2022/01/26 00:07:19;;;;;;;46.55;29.02;;;;;;;;;;6158853;23;20032;-74
2022/01/26 00:09:53;;;;;;;49.70;27.77;;;;;;;;;;6160902;23;20089;-74
2022/01/26 00:12:21;;;;;;;47.55;28.75;;;;;;;;;;6158826;23;20001;-75
2022/01/26 00:14:50;;;;;;;43.33;26.45;;;;;;;;;;6157170;23;20454;-70
2022/01/26 00:17:42;;;;;;;47.10;28.35;;;;;;;;;;6164310;23;20045;-77
2022/01/26 00:20:20;;;;;;;46.22;28.85;;;;;;;;;;6014396;23;20007;-77
2022/01/26 00:28:20;;;;;;;44.63;27.60;;;;;;;;;;6011982;23;20022;-76
2022/01/26 00:38:54;;;;;;;48.05;27.67;;;;;;;;;;6098235;23;20362;-77
2022/01/26 00:41:57;;;;;;;42.13;27.13;;;;;;;;;;6103149;23;20468;-76
2022/01/26 00:44:31;;;;;;;46.00;26.80;;;;;;;;;;6095314;23;19999;-71
2022/01/26 00:46:58;;;;;;;45.75;27.73;;;;;;;;;;6096263;23;20058;-70
2022/01/26 00:49:26;;;;;;;39.10;25.98;;;;;;;;;;6099650;23;20023;-77
2022/01/26 00:51:54;;;;;;;44.45;26.92;;;;;;;;;;6105053;23;20353;-71
2022/01/26 00:54:20;;;;;;;42.20;27.65;;;;;;;;;;6098263;23;20077;-77
2022/01/26 00:56:49;;;;;;;40.40;26.55;;;;;;;;;;6149558;23;20008;-73
2022/01/26 00:59:21;;;;;;;40.10;27.10;;;;;;;;;;6250988;23;20005;-76
2022/01/26 01:01:47;;;;;;;43.47;26.63;;;;;;;;;;6254201;22;19996;-77
2022/01/26 01:04:13;;;;;;;41.55;27.23;;;;;;;;;;6250624;23;20008;-72
2022/01/26 01:06:47;;;;;;;43.55;27.13;;;;;;;;;;6256557;23;20054;-76
2022/01/26 01:09:15;;;;;;;38.92;25.92;;;;;;;;;;6250944;23;20040;-71
2022/01/26 01:11:42;;;;;;;42.28;25.73;;;;;;;;;;6250207;23;20004;-70
2022/01/26 01:14:09;;;;;;;43.05;26.48;;;;;;;;;;6250782;23;20008;-77
2022/01/26 01:16:35;;;;;;;39.15;24.63;;;;;;;;;;6251286;23;20028;-77
2022/01/26 01:33:08;;;;;;;39.78;25.92;;;;;;;;;;6069811;23;20007;-76
2022/01/26 01:35:37;;;;;;;41.15;26.00;;;;;;;;;;6069226;23;20094;-71
2022/01/26 01:38:11;;;;;;;39.95;27.20;;;;;;;;;;6069660;23;20078;-71
2022/01/26 01:40:38;;;;;;;41.47;27.08;;;;;;;;;;6071686;23;20011;-75
2022/01/26 01:43:37;;;;;;;;;;;;;;;;;;;;;
2022/01/26 01:46:04;;;;;;;44.50;28.27;;;;;;;;;;6069925;23;20086;-73
2022/01/26 01:48:34;;;;;;;47.78;30.33;;;;;;;;;;6073539;23;20385;-76
2022/01/26 01:51:04;;;;;;;47.05;29.05;;;;;;;;;;6068588;23;20039;-76
2022/01/26 01:53:40;;;;;;;44.92;28.88;;;;;;;;;;6067806;23;20003;-76
2022/01/26 01:56:07;;;;;;;46.05;29.30;;;;;;;;;;6068582;23;20139;-74
2022/01/26 01:58:42;;;;;;;46.30;30.20;;;;;;;;;;6121812;23;20012;-77
2022/01/26 02:01:08;;;;;;;44.45;29.38;;;;;;;;;;6157009;23;20424;-77
2022/01/26 02:03:34;;;;;;;44.78;27.83;;;;;;;;;;6176375;23;20048;-70
2022/01/26 02:06:01;;;;;;;40.08;27.17;;;;;;;;;;6249830;23;20426;-76
2022/01/26 02:08:27;;;;;;;42.13;27.70;;;;;;;;;;6215088;23;20096;-71
2022/01/26 02:10:54;;;;;;;39.33;26.88;;;;;;;;;;6217582;23;20016;-72
2022/01/26 02:13:25;;;;;;;41.08;26.45;;;;;;;;;;6217822;23;20129;-70
2022/01/26 02:16:00;;;;;;;44.65;29.13;;;;;;;;;;6217367;23;20012;-72
2022/01/26 02:52:26;;;;;;;46.67;30.45;;;;;;;;;;6060593;23;20017;-73
2022/01/26 03:00:29;;;;;;;39.38;26.00;;;;;;;;;;6131911;23;20017;-72
2022/01/26 03:02:59;;;;;;;38.88;26.15;;;;;;;;;;6125720;23;20009;-76
2022/01/26 03:05:32;;;;;;;39.72;25.52;;;;;;;;;;6126441;23;20014;-75
2022/01/26 03:08:43;;;;;;;38.70;25.88;;;;;;;;;;6220322;23;20008;-76
2022/01/26 03:11:12;;;;;;;42.13;26.70;;;;;;;;;;6190325;23;20027;-77
2022/01/26 03:14:09;;;;;;;41.08;25.52;;;;;;;;;;6221703;23;20007;-76
2022/01/26 03:16:42;;;;;;;38.53;26.00;;;;;;;;;;6218487;23;19999;-75
2022/01/26 03:19:19;;;;;;;42.40;26.13;;;;;;;;;;6217405;23;20506;-75
2022/01/26 03:22:15;;;;;;;37.70;25.33;;;;;;;;;;6216562;23;20000;-73
2022/01/26 03:33:07;;;;;;;;;;;;;;;;;;;;;
2022/01/26 03:35:42;;;;;;;38.10;25.02;;;;;;;;;;6216554;23;20016;-71
2022/01/26 03:38:16;;;;;;;37.47;25.33;;;;;;;;;;6216827;23;20012;-70
2022/01/26 03:41:40;;;;;;;40.38;25.67;;;;;;;;;;6222426;23;20032;-75
2022/01/26 03:43:44;;;;;;;42.60;26.10;;;;;;;;;;6196925;23;20023;-74
2022/01/26 03:46:11;;;;;;;36.80;24.42;;;;;;;;;;6217853;23;20051;-77
2022/01/26 03:48:37;;;;;;;38.28;25.52;;;;;;;;;;6219608;23;20001;-76
2022/01/26 03:51:03;;;;;;;38.55;25.05;;;;;;;;;;6217623;23;20098;-76
2022/01/26 03:53:31;;;;;;;40.88;26.08;;;;;;;;;;6218725;23;20323;-75
2022/01/26 03:55:58;;;;;;;39.47;24.20;;;;;;;;;;6221935;23;20088;-77
2022/01/26 03:58:25;;;;;;;36.90;24.75;;;;;;;;;;6192108;23;20040;-76
2022/01/26 04:00:51;;;;;;;36.13;23.77;;;;;;;;;;6218591;23;20436;-77
2022/01/26 04:03:28;;;;;;;39.88;25.27;;;;;;;;;;6220489;23;20001;-77
2022/01/26 04:05:54;;;;;;;39.08;24.83;;;;;;;;;;6195712;23;20079;-71
2022/01/26 04:08:51;;;;;;;40.67;24.50;;;;;;;;;;6222638;23;20039;-76
2022/01/26 04:11:41;;;;;;;37.20;24.58;;;;;;;;;;6248088;23;20027;-76
2022/01/26 04:14:11;;;;;;;40.90;25.83;;;;;;;;;;6224528;23;20069;-76
2022/01/26 04:16:39;;;;;;;39.10;24.58;;;;;;;;;;6220533;23;19996;-76
2022/01/26 04:19:05;;;;;;;39.33;24.98;;;;;;;;;;6246757;23;20414;-76
2022/01/26 04:21:45;;;;;;;39.53;25.35;;;;;;;;;;6248181;23;20004;-76
2022/01/26 04:26:48;;;;;;;39.85;24.73;;;;;;;;;;6247844;23;20012;-76
2022/01/26 04:29:35;;;;;;;38.38;25.75;;;;;;;;;;6251976;23;20058;-75
2022/01/26 04:32:06;;;;;;;42.33;26.52;;;;;;;;;;6222300;23;20093;-70
2022/01/26 04:34:35;;;;;;;47.13;31.13;;;;;;;;;;6248822;23;19996;-72
2022/01/26 04:39:46;;;;;;;39.78;24.67;;;;;;;;;;6259685;23;20012;-73
2022/01/26 04:45:08;;;;;;;39.00;24.63;;;;;;;;;;6157402;23;20101;-77
2022/01/26 04:48:19;;;;;;;37.78;24.40;;;;;;;;;;6157891;23;20064;-70
2022/01/26 04:50:46;;;;;;;38.53;25.52;;;;;;;;;;6096577;23;20022;-76
2022/01/26 04:53:12;;;;;;;34.42;23.88;;;;;;;;;;6147588;23;20024;-70
2022/01/26 04:55:38;;;;;;;36.20;23.90;;;;;;;;;;6160283;23;20138;-76
2022/01/26 04:58:04;;;;;;;37.83;24.80;;;;;;;;;;6158005;23;20522;-76
2022/01/26 05:00:31;;;;;;;41.80;25.60;;;;;;;;;;6155186;23;20035;-70
2022/01/26 05:03:08;;;;;;;42.45;26.98;;;;;;;;;;6165217;23;20005;-77
2022/01/26 05:05:34;;;;;;;40.88;25.48;;;;;;;;;;6130981;23;20005;-73
2022/01/26 05:08:00;;;;;;;40.47;25.42;;;;;;;;;;6157254;23;20032;-71
2022/01/26 05:10:27;;;;;;;41.17;25.88;;;;;;;;;;6157320;23;20013;-74
2022/01/26 05:12:53;;;;;;;39.58;25.42;;;;;;;;;;6155470;23;20372;-75
2022/01/26 05:15:22;;;;;;;38.40;25.63;;;;;;;;;;6154882;23;20006;-73
2022/01/26 05:18:05;;;;;;;37.92;24.90;;;;;;;;;;6138895;23;20331;-76
2022/01/26 05:20:32;;;;;;;40.92;25.52;;;;;;;;;;6130306;23;20012;-76
2022/01/26 05:22:58;;;;;;;36.80;24.25;;;;;;;;;;6236533;23;20692;-76
2022/01/26 05:25:24;;;;;;;38.33;24.67;;;;;;;;;;6248506;23;20090;-76
2022/01/26 05:27:50;;;;;;;42.05;26.88;;;;;;;;;;6247817;23;20004;-70
2022/01/26 05:30:16;;;;;;;46.13;28.60;;;;;;;;;;6248643;23;20342;-76
2022/01/26 05:32:43;;;;;;;42.58;27.80;;;;;;;;;;6247361;23;20080;-76
2022/01/26 05:35:09;;;;;;;39.00;24.73;;;;;;;;;;6248080;23;20058;-72
2022/01/26 05:37:45;;;;;;;37.05;23.83;;;;;;;;;;6248320;23;20326;-77
2022/01/26 05:40:12;;;;;;;44.45;28.50;;;;;;;;;;6219816;23;20008;-73
2022/01/26 05:42:38;;;;;;;43.10;27.50;;;;;;;;;;6248012;23;20054;-77
2022/01/26 05:45:08;;;;;;;43.05;27.92;;;;;;;;;;6248682;23;20030;-73
2022/01/26 05:47:34;;;;;;;46.00;29.75;;;;;;;;;;6249593;23;20039;-76
2022/01/26 05:50:01;;;;;;;38.35;25.77;;;;;;;;;;6247621;23;20079;-74
2022/01/26 05:52:27;;;;;;;47.67;30.08;;;;;;;;;;6247406;23;20023;-75
2022/01/26 05:54:53;;;;;;;45.78;28.90;;;;;;;;;;6247389;23;20000;-71
2022/01/26 05:57:30;;;;;;;45.35;28.73;;;;;;;;;;6250341;23;20016;-68
2022/01/26 06:00:02;;;;;;;50.97;29.92;;;;;;;;;;6219989;23;20003;-70
2022/01/26 06:02:51;;;;;;;48.17;30.65;;;;;;;;;;6221716;23;20027;-71
2022/01/26 06:08:23;;;;;;;43.47;28.17;;;;;;;;;;6247858;23;20011;-70
2022/01/26 06:11:04;;;;;;;46.10;29.20;;;;;;;;;;6219668;23;20441;-75
2022/01/26 06:13:31;;;;;;;45.63;28.58;;;;;;;;;;6247617;23;20330;-70
2022/01/26 06:16:16;;;;;;;44.65;27.88;;;;;;;;;;6248382;23;20000;-69
2022/01/26 06:18:43;;;;;;;47.00;28.65;;;;;;;;;;6221681;23;20000;-69
2022/01/26 06:21:10;;;;;;;40.50;26.60;;;;;;;;;;6247454;23;19997;-70
2022/01/26 06:23:36;;;;;;;44.75;28.33;;;;;;;;;;6246196;23;20027;-71
2022/01/26 06:26:05;;;;;;;43.17;28.67;;;;;;;;;;6246000;23;20071;-72
2022/01/26 06:28:31;;;;;;;52.05;32.05;;;;;;;;;;6220380;23;20016;-73
2022/01/26 06:31:03;;;;;;;49.08;30.05;;;;;;;;;;6246853;23;20039;-70
2022/01/26 06:33:29;;;;;;;52.75;31.83;;;;;;;;;;6246571;23;20042;-71
2022/01/26 06:35:57;;;;;;;53.78;32.30;;;;;;;;;;6246293;23;20023;-71
2022/01/26 06:38:28;;;;;;;48.05;30.50;;;;;;;;;;6246244;23;20071;-72
2022/01/26 06:40:54;;;;;;;57.08;36.05;;;;;;;;;;6247112;23;20158;-72
2022/01/26 06:43:26;;;;;;;50.72;31.73;;;;;;;;;;6247175;23;20006;-70
2022/01/26 06:46:05;;;;;;;49.30;32.38;;;;;;;;;;6219320;23;20014;-72
2022/01/26 06:51:06;;;;;;;63.40;35.30;;;;;;;;;;6256860;23;20349;-72
2022/01/26 06:53:34;;;;;;;56.88;32.13;;;;;;;;;;6220255;23;20057;-72
2022/01/26 06:56:02;;;;;;;51.80;31.33;;;;;;;;;;6245592;23;20057;-72
2022/01/26 06:58:29;;;;;;;78.85;42.28;;;;;;;;;;6246595;23;20504;-73
2022/01/26 07:00:55;;;;;;;57.10;33.60;;;;;;;;;;6246140;23;20004;-74
2022/01/26 07:03:31;;;;;;;64.70;37.25;;;;;;;;;;6247379;22;20000;-72
2022/01/26 07:06:00;;;;;;;53.17;32.47;;;;;;;;;;6249127;23;19996;-75
2022/01/26 07:08:26;;;;;;;101.22;58.90;;;;;;;;;;6246780;23;20338;-75
2022/01/26 07:10:53;;;;;;;149.23;77.03;;;;;;;;;;6246705;23;20099;-75
2022/01/26 07:13:19;;;;;;;51.33;33.60;;;;;;;;;;6249523;23;20422;-74
2022/01/26 07:23:41;;;;;;;41.97;26.90;;;;;;;;;;6255482;23;20011;-75
2022/01/26 07:26:07;;;;;;;39.17;26.77;;;;;;;;;;6245421;23;20000;-73
2022/01/26 07:28:37;;;;;;;41.10;26.80;;;;;;;;;;6218387;23;20000;-76
2022/01/26 07:31:04;;;;;;;44.10;27.50;;;;;;;;;;6245281;23;20066;-73
2022/01/26 07:33:30;;;;;;;42.83;26.70;;;;;;;;;;6245336;23;20003;-72
2022/01/26 07:35:56;;;;;;;39.63;25.80;;;;;;;;;;6195414;23;20039;-73
2022/01/26 07:38:22;;;;;;;40.22;26.77;;;;;;;;;;6222425;23;20008;-71
2022/01/26 07:40:48;;;;;;;39.08;25.98;;;;;;;;;;6221972;23;20008;-71
2022/01/26 07:43:15;;;;;;;41.83;25.85;;;;;;;;;;6244312;23;19996;-71
2022/01/26 07:45:41;;;;;;;39.45;26.67;;;;;;;;;;6245758;23;20026;-72
2022/01/26 07:48:08;;;;;;;41.35;27.77;;;;;;;;;;6244385;23;20024;-73
2022/01/26 07:50:34;;;;;;;40.60;25.42;;;;;;;;;;6245210;23;20015;-71
2022/01/26 07:53:03;;;;;;;43.58;27.70;;;;;;;;;;6244687;23;20007;-72
2022/01/26 07:55:30;;;;;;;43.28;26.98;;;;;;;;;;6244532;23;20030;-72
2022/01/26 07:57:57;;;;;;;40.45;26.58;;;;;;;;;;6217507;23;20039;-71
2022/01/26 08:00:23;;;;;;;41.35;26.23;;;;;;;;;;6245359;23;20026;-73
2022/01/26 08:02:50;;;;;;;42.05;28.02;;;;;;;;;;6245342;22;20429;-71
2022/01/26 08:05:21;;;;;;;47.15;28.08;;;;;;;;;;6244488;23;20004;-70
2022/01/26 08:07:51;;;;;;;51.08;35.63;;;;;;;;;;6245391;23;19996;-70
2022/01/26 08:10:21;;;;;;;45.10;28.83;;;;;;;;;;6244232;23;20019;-70
2022/01/26 08:12:53;;;;;;;39.60;26.02;;;;;;;;;;6244618;23;20000;-71
2022/01/26 08:15:25;;;;;;;40.30;26.10;;;;;;;;;;6219261;23;20004;-72
2022/01/26 08:17:53;;;;;;;51.88;32.70;;;;;;;;;;6247686;22;20419;-78
2022/01/26 08:20:25;;;;;;;45.85;30.63;;;;;;;;;;6205492;23;20000;-78
2022/01/26 08:22:55;;;;;;;45.00;29.65;;;;;;;;;;6249635;23;20118;-74
2022/01/26 08:25:22;;;;;;;43.33;28.30;;;;;;;;;;6246686;23;20012;-73
2022/01/26 08:27:57;;;;;;;45.30;27.70;;;;;;;;;;6222934;23;20319;-73
2022/01/26 08:30:23;;;;;;;42.42;28.30;;;;;;;;;;6232786;23;20008;-72
2022/01/26 08:32:52;;;;;;;47.67;30.33;;;;;;;;;;6227343;23;20000;-74
2022/01/26 08:35:18;;;;;;;49.92;30.70;;;;;;;;;;6229291;23;20004;-72
2022/01/26 08:37:46;;;;;;;46.10;29.58;;;;;;;;;;6221026;23;19997;-77
2022/01/26 08:40:18;;;;;;;43.85;28.95;;;;;;;;;;6235830;22;20016;-79
2022/01/26 08:42:48;;;;;;;43.13;28.10;;;;;;;;;;6162403;23;20013;-72
2022/01/26 08:45:23;;;;;;;50.40;31.48;;;;;;;;;;6260913;23;20008;-76
2022/01/26 08:47:50;;;;;;;53.20;34.27;;;;;;;;;;6227366;23;20087;-75
2022/01/26 08:50:16;;;;;;;51.03;31.08;;;;;;;;;;6224361;23;20060;-75
2022/01/26 08:52:42;;;;;;;44.25;29.58;;;;;;;;;;6253180;23;20060;-76
2022/01/26 08:55:10;;;;;;;45.88;29.65;;;;;;;;;;6256507;23;20004;-76
2022/01/26 08:57:38;;;;;;;45.17;29.05;;;;;;;;;;6257501;23;20012;-73
2022/01/26 09:00:05;;;;;;;47.25;30.65;;;;;;;;;;6225458;23;20046;-77
2022/01/26 09:02:31;;;;;;;49.78;31.63;;;;;;;;;;6229095;23;20008;-76
2022/01/26 09:04:57;;;;;;;44.45;29.80;;;;;;;;;;6245927;23;20004;-77
2022/01/26 09:07:23;;;;;;;50.92;30.38;;;;;;;;;;6247943;23;20011;-76
2022/01/26 09:09:49;;;;;;;46.08;30.52;;;;;;;;;;6248125;23;20448;-77
2022/01/26 09:12:19;;;;;;;50.58;30.70;;;;;;;;;;6221925;23;20008;-78
2022/01/26 09:14:46;;;;;;;46.55;30.95;;;;;;;;;;6250966;23;19996;-76
2022/01/26 09:17:13;;;;;;;45.10;29.45;;;;;;;;;;6246959;23;20004;-76
2022/01/26 09:19:42;;;;;;;47.53;30.00;;;;;;;;;;6247283;23;20593;-76
2022/01/26 09:22:09;;;;;;;42.97;28.25;;;;;;;;;;6218560;23;20019;-76
2022/01/26 09:24:36;;;;;;;43.65;28.45;;;;;;;;;;6245820;23;20422;-76
2022/01/26 09:27:03;;;;;;;48.33;29.02;;;;;;;;;;6245954;23;20008;-75
2022/01/26 09:29:29;;;;;;;46.47;30.27;;;;;;;;;;6248978;23;20008;-76
2022/01/26 09:31:55;;;;;;;47.92;30.02;;;;;;;;;;6250066;23;20015;-76
2022/01/26 09:34:24;;;;;;;45.50;30.42;;;;;;;;;;6219977;23;20000;-74
2022/01/26 09:36:50;;;;;;;50.15;32.00;;;;;;;;;;6226695;23;20000;-73
2022/01/26 09:39:20;;;;;;;49.13;31.80;;;;;;;;;;6254450;23;20341;-73
2022/01/26 09:41:50;;;;;;;45.65;30.42;;;;;;;;;;6257280;23;20004;-72
2022/01/26 09:44:17;;;;;;;53.33;33.00;;;;;;;;;;6210161;23;20004;-72
2022/01/26 09:46:58;;;;;;;52.05;31.58;;;;;;;;;;6227660;23;20008;-72
2022/01/26 09:49:38;;;;;;;48.67;30.48;;;;;;;;;;6254244;23;20000;-70
2022/01/26 09:52:48;;;;;;;107.90;55.70;;;;;;;;;;6229911;23;20016;-71
2022/01/26 09:55:14;;;;;;;57.20;35.70;;;;;;;;;;6236341;23;20003;-70
2022/01/26 09:57:44;;;;;;;82.13;50.58;;;;;;;;;;6225602;23;20027;-71
2022/01/26 10:00:18;;;;;;;59.10;37.40;;;;;;;;;;6227362;23;20019;-71
2022/01/26 10:02:58;;;;;;;74.85;49.85;;;;;;;;;;6252492;22;20015;-73
2022/01/26 10:05:25;;;;;;;63.53;41.10;;;;;;;;;;6174664;23;20083;-73
2022/01/26 10:15:26;;;;;;;53.60;35.13;;;;;;;;;;6255466;23;20020;-72
2022/01/26 10:18:32;;;;;;;62.47;41.63;;;;;;;;;;6246559;23;20008;-77
2022/01/26 10:20:59;;;;;;;48.45;32.47;;;;;;;;;;6221340;23;20043;-74
2022/01/26 10:23:27;;;;;;;44.63;28.27;;;;;;;;;;6253608;23;20000;-74
2022/01/26 10:26:02;;;;;;;45.35;28.52;;;;;;;;;;6249959;23;20039;-74
2022/01/26 10:28:39;;;;;;;49.63;30.90;;;;;;;;;;6223390;23;20333;-75
2022/01/26 10:31:12;;;;;;;46.95;30.05;;;;;;;;;;6246616;23;20047;-77
2022/01/26 10:33:41;;;;;;;45.63;28.73;;;;;;;;;;6248409;23;20004;-77
2022/01/26 10:36:10;;;;;;;44.67;28.13;;;;;;;;;;6252201;23;20338;-71
2022/01/26 10:38:36;;;;;;;48.13;28.83;;;;;;;;;;6252077;23;20300;-72
2022/01/26 10:41:05;;;;;;;42.38;27.67;;;;;;;;;;6228227;23;20007;-71
2022/01/26 10:43:37;;;;;;;43.00;28.70;;;;;;;;;;6253587;23;20007;-73
2022/01/26 10:46:06;;;;;;;43.17;29.23;;;;;;;;;;6255312;23;20007;-72
2022/01/26 10:48:55;;;;;;;45.78;28.58;;;;;;;;;;6250904;23;20004;-74
2022/01/26 10:52:07;;;;;;;43.85;29.02;;;;;;;;;;6194084;23;20085;-73
2022/01/26 10:54:21;;;;;;;45.80;29.98;;;;;;;;;;6183708;23;20015;-71
2022/01/26 10:57:00;;;;;;;45.50;30.73;;;;;;;;;;6197233;23;20024;-73
2022/01/26 10:59:31;;;;;;;56.35;35.58;;;;;;;;;;6202303;23;20013;-73
2022/01/26 11:02:01;;;;;;;58.67;34.70;;;;;;;;;;6174182;23;20001;-76
2022/01/26 11:04:28;;;;;;;55.15;33.05;;;;;;;;;;6191549;23;20084;-75
2022/01/26 11:06:55;;;;;;;52.42;31.70;;;;;;;;;;6189636;23;20005;-75
2022/01/26 11:09:27;;;;;;;53.47;32.45;;;;;;;;;;6164352;23;20000;-73
2022/01/26 11:12:11;;;;;;;58.47;33.77;;;;;;;;;;6178379;23;20009;-74
2022/01/26 11:14:50;;;;;;;56.40;34.55;;;;;;;;;;6173108;23;20237;-76
2022/01/26 11:17:29;;;;;;;58.30;34.92;;;;;;;;;;6182494;23;20040;-75
2022/01/26 11:19:59;;;;;;;46.78;30.55;;;;;;;;;;6182635;23;20005;-73
2022/01/26 11:22:29;;;;;;;50.80;31.58;;;;;;;;;;6182626;23;20047;-75
2022/01/26 11:25:15;;;;;;;45.53;30.33;;;;;;;;;;6197606;23;20008;-75
2022/01/26 11:28:03;;;;;;;47.67;31.63;;;;;;;;;;6147871;23;20020;-72
2022/01/26 11:30:32;;;;;;;48.65;30.33;;;;;;;;;;6148864;23;20013;-72
2022/01/26 11:33:20;;;;;;;64.15;41.92;;;;;;;;;;6170409;23;20020;-72
2022/01/26 11:35:48;;;;;;;50.33;35.55;;;;;;;;;;6169434;23;20052;-72
2022/01/26 11:46:59;;;;;;;46.45;30.58;;;;;;;;;;6187016;23;20051;-76
2022/01/26 11:49:46;;;;;;;48.20;30.95;;;;;;;;;;6188446;23;20028;-72
2022/01/26 11:52:27;;;;;;;44.95;28.90;;;;;;;;;;6190340;23;20020;-76
2022/01/26 11:54:59;;;;;;;48.45;31.02;;;;;;;;;;6192233;23;20076;-71
2022/01/26 11:57:51;;;;;;;51.13;32.25;;;;;;;;;;6169053;23;20016;-73
2022/01/26 12:00:48;;;;;;;58.90;36.78;;;;;;;;;;6104897;23;20011;-72
2022/01/26 12:03:36;;;;;;;51.75;33.80;;;;;;;;;;6105415;23;20010;-71
2022/01/26 12:06:13;;;;;;;51.92;35.38;;;;;;;;;;6076953;23;20003;-75
2022/01/26 12:08:44;;;;;;;52.70;33.20;;;;;;;;;;6048790;23;20014;-76
2022/01/26 12:11:12;;;;;;;50.42;35.05;;;;;;;;;;6045417;23;20062;-75
2022/01/26 12:13:40;;;;;;;68.88;42.05;;;;;;;;;;6050020;23;20013;-70
2022/01/26 12:16:13;;;;;;;74.00;44.00;;;;;;;;;;6085193;23;20054;-71
2022/01/26 12:18:52;;;;;;;67.07;41.92;;;;;;;;;;6037408;23;20007;-75
2022/01/26 12:43:39;;;;;;;63.40;39.53;;;;;;;;;;6078081;23;20022;-71
2022/01/26 12:46:17;;;;;;;58.97;36.20;;;;;;;;;;6058912;23;20030;-72
2022/01/26 12:48:49;;;;;;;80.82;46.95;;;;;;;;;;6082340;23;20014;-77
2022/01/26 12:51:15;;;;;;;73.25;45.22;;;;;;;;;;6097349;23;19993;-72
2022/01/26 12:54:06;;;;;;;68.75;41.17;;;;;;;;;;6142214;23;20001;-75
2022/01/26 12:56:34;;;;;;;63.30;38.05;;;;;;;;;;6122667;23;20042;-71
2022/01/26 13:02:11;;;;;;;61.40;39.17;;;;;;;;;;6144685;23;20032;-72
2022/01/26 13:04:37;;;;;;;54.50;35.10;;;;;;;;;;6143733;23;20006;-72
2022/01/26 13:07:28;;;;;;;54.85;34.88;;;;;;;;;;6147021;23;20154;-72
2022/01/26 13:10:20;;;;;;;56.65;35.35;;;;;;;;;;6140998;23;20025;-72
2022/01/26 13:12:47;;;;;;;58.92;38.28;;;;;;;;;;6139553;23;20021;-71
2022/01/26 13:15:46;;;;;;;63.28;38.47;;;;;;;;;;6163445;23;20005;-72
2022/01/26 13:24:34;;;;;;;55.20;34.80;;;;;;;;;;6145710;23;20172;-73
2022/01/26 13:30:12;;;;;;;59.35;36.80;;;;;;;;;;6147478;23;20065;-71
2022/01/26 13:32:59;;;;;;;66.20;41.97;;;;;;;;;;6140448;23;20040;-72
2022/01/26 13:52:26;;;;;;;62.10;38.75;;;;;;;;;;5970360;24;20027;-73
2022/01/26 14:00:54;;;;;;;73.00;42.47;;;;;;;;;;5988728;24;20019;-74
2022/01/26 14:03:35;;;;;;;78.43;45.95;;;;;;;;;;5968951;24;20004;-75
2022/01/26 14:06:26;;;;;;;74.75;44.58;;;;;;;;;;5965369;24;20025;-72
2022/01/26 14:08:53;;;;;;;103.15;53.75;;;;;;;;;;5981174;24;20008;-76
2022/01/26 14:11:20;;;;;;;90.15;50.85;;;;;;;;;;5990395;23;20034;-79
2022/01/26 14:13:50;;;;;;;89.70;51.65;;;;;;;;;;5989354;24;20027;-72
2022/01/26 14:16:18;;;;;;;92.25;53.55;;;;;;;;;;5994247;23;20474;-73
2022/01/26 14:19:04;;;;;;;69.68;42.28;;;;;;;;;;6007254;23;20007;-73
2022/01/26 14:22:06;;;;;;;78.13;43.80;;;;;;;;;;6043546;23;20003;-73
2022/01/26 14:27:37;;;;;;;130.60;57.10;;;;;;;;;;6153794;23;20016;-72
2022/01/26 15:09:20;;;;;;;52.50;33.35;;;;;;;;;;6078269;23;20090;-71
2022/01/26 15:40:47;;;;;;;55.42;34.13;;;;;;;;;;6047111;23;20411;-77
2022/01/26 15:44:18;;;;;;;59.30;37.63;;;;;;;;;;6055751;23;20014;-70
2022/01/26 15:49:52;;;;;;;58.38;36.40;;;;;;;;;;5916469;24;20449;-73
2022/01/26 16:37:43;;;;;;;56.55;34.17;;;;;;;;;;6083203;23;20021;-70
2022/01/26 17:34:28;;;;;;;113.85;59.45;;;;;;;;;;6002968;24;20065;-76
2022/01/26 18:16:29;;;;;;;93.78;47.15;;;;;;;;;;6319438;22;20018;-70
2022/01/26 18:33:28;;;;;;;103.22;57.72;;;;;;;;;;6221617;23;20020;-73
2022/01/26 18:50:36;;;;;;;111.88;57.45;;;;;;;;;;6194528;23;20019;-69
2022/01/26 18:53:08;;;;;;;88.55;49.47;;;;;;;;;;6193114;23;20364;-75
2022/01/26 18:55:34;;;;;;;64.40;39.85;;;;;;;;;;6166150;23;20013;-71
2022/01/26 18:58:03;;;;;;;58.65;36.47;;;;;;;;;;6193018;23;20005;-70
2022/01/26 19:00:43;;;;;;;64.25;38.17;;;;;;;;;;6191356;23;20009;-73
2022/01/26 19:03:12;;;;;;;63.08;36.08;;;;;;;;;;6193417;23;20017;-70
2022/01/26 19:06:00;;;;;;;;;;;;;;;;;;;;;
2022/01/26 19:08:31;;;;;;;72.30;39.38;;;;;;;;;;6192593;23;20033;-73
2022/01/26 19:11:07;;;;;;;64.15;38.90;;;;;;;;;;6212578;23;20218;-72
2022/01/26 19:13:39;;;;;;;63.33;38.78;;;;;;;;;;6235344;23;19999;-71
2022/01/26 19:16:20;;;;;;;72.05;42.83;;;;;;;;;;6256989;23;20008;-71
2022/01/26 19:24:44;;;;;;;141.27;60.53;;;;;;;;;;6198661;23;20013;-72
2022/01/26 19:27:20;;;;;;;190.43;72.18;;;;;;;;;;6191262;23;20005;-69
2022/01/26 19:52:17;;;;;;;62.92;36.17;;;;;;;;;;6120109;23;20013;-70
2022/01/26 19:54:47;;;;;;;63.50;35.70;;;;;;;;;;6118244;23;19998;-70
2022/01/26 19:57:13;;;;;;;68.40;37.25;;;;;;;;;;6118530;23;20006;-70
2022/01/26 19:59:49;;;;;;;93.82;45.30;;;;;;;;;;6139814;23;20020;-70
2022/01/26 20:02:15;;;;;;;111.32;50.20;;;;;;;;;;6146984;23;20006;-70
2022/01/26 20:04:47;;;;;;;191.20;64.38;;;;;;;;;;6177016;23;20006;-71
2022/01/26 20:07:21;;;;;;;96.55;46.25;;;;;;;;;;6146890;23;20009;-72
2022/01/26 20:09:53;;;;;;;86.72;42.53;;;;;;;;;;6177997;23;19990;-78
2022/01/26 20:12:34;;;;;;;62.92;36.63;;;;;;;;;;6181386;23;20006;-71
2022/01/26 20:15:12;;;;;;;85.30;41.85;;;;;;;;;;6121402;23;20005;-70
2022/01/26 20:17:42;;;;;;;74.20;37.70;;;;;;;;;;6116520;23;19995;-71
2022/01/26 20:20:12;;;;;;;66.95;37.72;;;;;;;;;;6180798;23;19999;-70
2022/01/26 20:22:39;;;;;;;92.50;44.33;;;;;;;;;;6239178;22;19993;-70
2022/01/26 20:25:05;;;;;;;96.85;43.33;;;;;;;;;;6235726;22;20015;-71
2022/01/26 20:27:35;;;;;;;155.00;56.15;;;;;;;;;;6239318;23;20032;-72
2022/01/26 20:30:10;;;;;;;203.73;71.68;;;;;;;;;;6237020;23;20016;-70
2022/01/26 20:32:36;;;;;;;124.07;50.92;;;;;;;;;;6236571;23;20004;-70
2022/01/26 20:35:02;;;;;;;97.10;43.95;;;;;;;;;;6209622;23;20008;-71
2022/01/26 20:37:30;;;;;;;230.57;80.15;;;;;;;;;;6234958;22;20066;-70
2022/01/26 20:39:56;;;;;;;133.00;53.42;;;;;;;;;;6236212;22;20021;-70
2022/01/26 20:42:23;;;;;;;124.85;49.92;;;;;;;;;;6235142;23;20078;-69
2022/01/26 20:44:56;;;;;;;145.30;57.20;;;;;;;;;;6238292;22;20068;-70
2022/01/26 20:47:23;;;;;;;129.05;52.88;;;;;;;;;;6241018;22;20040;-72
2022/01/26 20:49:49;;;;;;;96.18;46.28;;;;;;;;;;6230989;23;20040;-71
2022/01/26 20:52:15;;;;;;;82.25;43.85;;;;;;;;;;6290377;22;20012;-70
2022/01/26 20:54:45;;;;;;;98.78;51.05;;;;;;;;;;6306246;22;20031;-70
2022/01/26 20:57:11;;;;;;;137.75;61.72;;;;;;;;;;6305388;22;20169;-69
2022/01/26 20:59:37;;;;;;;85.82;45.85;;;;;;;;;;6324421;22;19999;-70
2022/01/26 21:02:03;;;;;;;87.90;47.20;;;;;;;;;;6328955;22;20007;-70
2022/01/26 21:04:29;;;;;;;80.88;46.88;;;;;;;;;;6328445;22;20042;-70
2022/01/26 21:06:55;;;;;;;65.53;38.58;;;;;;;;;;6329928;22;20012;-70
2022/01/26 21:09:21;;;;;;;58.92;37.22;;;;;;;;;;6329219;22;20014;-70
2022/01/26 21:11:47;;;;;;;65.55;41.58;;;;;;;;;;6332768;22;20000;-71
2022/01/26 21:14:13;;;;;;;64.38;39.80;;;;;;;;;;6329144;22;19999;-70
2022/01/26 21:16:42;;;;;;;63.85;38.88;;;;;;;;;;6328444;22;20007;-70
2022/01/26 21:19:09;;;;;;;60.67;35.88;;;;;;;;;;6330262;22;19999;-70
2022/01/26 21:21:38;;;;;;;62.90;37.53;;;;;;;;;;6332152;22;20003;-70
2022/01/26 21:24:17;;;;;;;59.15;35.53;;;;;;;;;;6332638;22;19991;-70
2022/01/26 21:26:44;;;;;;;60.83;35.17;;;;;;;;;;6330859;22;20006;-69
2022/01/26 21:29:10;;;;;;;61.40;37.03;;;;;;;;;;6333113;22;19999;-71
2022/01/26 21:31:36;;;;;;;55.17;34.10;;;;;;;;;;6330020;22;20014;-71
2022/01/26 21:34:11;;;;;;;59.38;35.13;;;;;;;;;;6335944;22;20007;-77
2022/01/26 21:36:39;;;;;;;59.83;35.75;;;;;;;;;;6301565;22;20003;-70
2022/01/26 21:39:08;;;;;;;59.72;37.17;;;;;;;;;;6333600;22;20120;-70
2022/01/26 21:41:34;;;;;;;54.42;34.03;;;;;;;;;;6332732;22;20003;-70
2022/01/26 21:44:00;;;;;;;58.60;36.08;;;;;;;;;;6331343;22;20035;-72
2022/01/26 21:46:27;;;;;;;62.30;35.63;;;;;;;;;;6330474;22;20000;-70
2022/01/26 21:48:55;;;;;;;60.20;34.05;;;;;;;;;;6332091;22;20022;-69
2022/01/26 21:52:02;;;;;;;53.30;33.38;;;;;;;;;;6331705;22;20007;-70
2022/01/26 21:54:28;;;;;;;57.08;33.88;;;;;;;;;;6331393;22;19983;-70
2022/01/26 21:56:54;;;;;;;54.17;34.13;;;;;;;;;;6304236;22;20026;-70
2022/01/26 21:59:20;;;;;;;52.35;32.90;;;;;;;;;;6334566;22;19999;-71
2022/01/26 22:02:29;;;;;;;56.65;33.95;;;;;;;;;;6301939;22;20034;-69
2022/01/26 22:04:55;;;;;;;58.30;33.63;;;;;;;;;;6296375;22;20031;-70
2022/01/26 22:07:21;;;;;;;54.40;32.80;;;;;;;;;;6329085;22;20009;-70
2022/01/26 22:09:52;;;;;;;56.17;34.33;;;;;;;;;;6327623;22;20006;-70
2022/01/26 22:12:20;;;;;;;50.75;32.00;;;;;;;;;;6307346;22;20086;-69
2022/01/26 22:14:47;;;;;;;52.33;31.25;;;;;;;;;;6331606;22;19996;-73